createdAt,value
2018-05-23T00:00:30.786Z,1010.60
2018-05-23T00:01:30.809Z,1010.61
2018-05-23T00:02:30.832Z,1010.58
2018-05-23T00:03:30.855Z,1010.58
2018-05-23T00:04:30.878Z,1010.61
2018-05-23T00:05:30.902Z,1010.59
2018-05-23T00:06:30.929Z,1010.59
2018-05-23T00:07:30.950Z,1010.58
2018-05-23T00:08:30.972Z,1010.61
2018-05-23T00:09:30.994Z,1010.60
2018-05-23T00:10:31.018Z,1010.62
2018-05-23T00:11:31.041Z,1010.61
2018-05-23T00:12:31.067Z,1010.64
2018-05-23T00:13:31.088Z,1010.68
2018-05-23T00:14:31.111Z,1010.65
2018-05-23T00:15:31.134Z,1010.66
2018-05-23T00:16:31.158Z,1010.66
2018-05-23T00:17:31.180Z,1010.65
2018-05-23T00:18:31.204Z,1010.66
2018-05-23T00:19:31.227Z,1010.64
2018-05-23T00:20:31.254Z,1010.62
2018-05-23T00:21:31.273Z,1010.62
2018-05-23T00:22:31.297Z,1010.56
2018-05-23T00:23:31.319Z,1010.60
2018-05-23T00:24:31.343Z,1010.51
2018-05-23T00:25:31.368Z,1010.52
2018-05-23T00:26:31.390Z,1010.56
2018-05-23T00:27:31.414Z,1010.54
2018-05-23T00:28:31.436Z,1010.53
2018-05-23T00:29:31.459Z,1010.53
2018-05-23T00:30:31.483Z,1010.53
2018-05-23T00:31:31.505Z,1010.51
2018-05-23T00:32:31.538Z,1010.48
2018-05-23T00:33:31.555Z,1010.50
2018-05-23T00:34:31.578Z,1010.50
2018-05-23T00:35:31.600Z,1010.51
2018-05-23T00:36:31.622Z,1010.52
2018-05-23T00:37:31.645Z,1010.48
2018-05-23T00:38:31.668Z,1010.51
2018-05-23T00:39:31.695Z,1010.53
2018-05-23T00:40:31.714Z,1010.52
2018-05-23T00:41:31.738Z,1010.53
2018-05-23T00:42:31.761Z,1010.49
2018-05-23T00:43:31.784Z,1010.50
2018-05-23T00:44:31.807Z,1010.54
2018-05-23T00:45:31.830Z,1010.52
2018-05-23T00:46:31.854Z,1010.58
2018-05-23T00:47:31.877Z,1010.56
2018-05-23T00:48:31.899Z,1010.56
2018-05-23T00:49:31.923Z,1010.58
2018-05-23T00:50:31.947Z,1010.58
2018-05-23T00:51:31.969Z,1010.59
2018-05-23T00:52:31.994Z,1010.56
2018-05-23T00:53:32.016Z,1010.53
2018-05-23T00:54:32.042Z,1010.54
2018-05-23T00:55:32.062Z,1010.55
2018-05-23T00:56:32.085Z,1010.56
2018-05-23T00:57:32.108Z,1010.56
2018-05-23T00:58:32.132Z,1010.54
2018-05-23T00:59:32.153Z,1010.56
2018-05-23T01:00:32.179Z,1010.54
2018-05-23T01:01:32.201Z,1010.56
2018-05-23T01:02:32.224Z,1010.60
2018-05-23T01:03:32.246Z,1010.56
2018-05-23T01:04:32.271Z,1010.56
2018-05-23T01:05:32.297Z,1010.56
2018-05-23T01:06:32.317Z,1010.55
2018-05-23T01:07:32.339Z,1010.57
2018-05-23T01:08:32.362Z,1010.55
2018-05-23T01:09:32.385Z,1010.53
2018-05-23T01:10:32.410Z,1010.56
2018-05-23T01:11:32.431Z,1010.57
2018-05-23T01:12:32.455Z,1010.59
2018-05-23T01:13:32.477Z,1010.60
2018-05-23T01:14:32.502Z,1010.63
2018-05-23T01:15:32.526Z,1010.63
2018-05-23T01:16:32.547Z,1010.57
2018-05-23T01:17:32.571Z,1010.66
2018-05-23T01:18:32.594Z,1010.63
2018-05-23T01:19:32.616Z,1010.65
2018-05-23T01:20:32.639Z,1010.65
2018-05-23T01:21:32.663Z,1010.63
2018-05-23T01:22:32.685Z,1010.61
2018-05-23T01:23:32.708Z,1010.62
2018-05-23T01:24:32.731Z,1010.65
2018-05-23T01:25:32.754Z,1010.66
2018-05-23T01:26:32.776Z,1010.66
2018-05-23T01:27:32.799Z,1010.68
2018-05-23T01:28:32.823Z,1010.68
2018-05-23T01:29:32.845Z,1010.68
2018-05-23T01:30:32.871Z,1010.71
2018-05-23T01:31:32.900Z,1010.66
2018-05-23T01:32:32.914Z,1010.69
2018-05-23T01:33:32.938Z,1010.71
2018-05-23T01:34:32.960Z,1010.76
2018-05-23T01:35:32.983Z,1010.79
2018-05-23T01:36:33.007Z,1010.80
2018-05-23T01:37:33.029Z,1010.76
2018-05-23T01:38:33.052Z,1010.73
2018-05-23T01:39:33.076Z,1010.74
2018-05-23T01:40:33.098Z,1010.71
2018-05-23T01:41:33.122Z,1010.71
2018-05-23T01:42:33.145Z,1010.68
2018-05-23T01:43:33.169Z,1010.68
2018-05-23T01:44:33.190Z,1010.67
2018-05-23T01:45:33.213Z,1010.62
2018-05-23T01:46:33.236Z,1010.62
2018-05-23T01:47:33.258Z,1010.64
2018-05-23T01:48:33.281Z,1010.63
2018-05-23T01:49:33.305Z,1010.63
2018-05-23T01:50:33.329Z,1010.65
2018-05-23T01:51:33.351Z,1010.65
2018-05-23T01:52:33.375Z,1010.64
2018-05-23T01:53:33.397Z,1010.64
2018-05-23T01:54:33.421Z,1010.64
2018-05-23T01:55:33.442Z,1010.63
2018-05-23T01:56:33.468Z,1010.67
2018-05-23T01:57:33.490Z,1010.65
2018-05-23T01:58:33.515Z,1010.71
2018-05-23T01:59:33.535Z,1010.64
2018-05-23T02:00:33.558Z,1010.68
2018-05-23T02:01:33.581Z,1010.68
2018-05-23T02:02:33.604Z,1010.75
2018-05-23T02:03:33.628Z,1010.68
2018-05-23T02:04:33.650Z,1010.72
2018-05-23T02:05:33.675Z,1010.73
2018-05-23T02:06:33.696Z,1010.73
2018-05-23T02:07:33.719Z,1010.74
2018-05-23T02:08:33.744Z,1010.73
2018-05-23T02:09:33.766Z,1010.69
2018-05-23T02:10:33.796Z,1010.78
2018-05-23T02:11:33.811Z,1010.75
2018-05-23T02:12:33.835Z,1010.72
2018-05-23T02:13:33.907Z,1010.75
2018-05-23T02:14:33.880Z,1010.76
2018-05-23T02:15:33.903Z,1010.76
2018-05-23T02:16:33.926Z,1010.76
2018-05-23T02:17:33.949Z,1010.77
2018-05-23T02:18:33.972Z,1010.78
2018-05-23T02:19:33.995Z,1010.75
2018-05-23T02:20:34.020Z,1010.73
2018-05-23T02:21:34.041Z,1010.76
2018-05-23T02:22:34.065Z,1010.74
2018-05-23T02:23:34.086Z,1010.77
2018-05-23T02:24:34.110Z,1010.77
2018-05-23T02:25:34.132Z,1010.78
2018-05-23T02:26:34.157Z,1010.81
2018-05-23T02:27:34.178Z,1010.80
2018-05-23T02:28:34.202Z,1010.88
2018-05-23T02:29:34.228Z,1010.82
2018-05-23T02:30:34.259Z,1010.86
2018-05-23T02:31:34.270Z,1010.90
2018-05-23T02:32:34.294Z,1010.85
2018-05-23T02:33:34.317Z,1010.91
2018-05-23T02:34:34.341Z,1010.87
2018-05-23T02:35:34.362Z,1010.84
2018-05-23T02:36:34.387Z,1010.83
2018-05-23T02:37:34.416Z,1010.84
2018-05-23T02:38:34.432Z,1010.86
2018-05-23T02:39:34.460Z,1010.88
2018-05-23T02:40:34.477Z,1010.84
2018-05-23T02:41:34.509Z,1010.87
2018-05-23T02:42:34.523Z,1010.87
2018-05-23T02:43:34.547Z,1010.89
2018-05-23T02:44:34.569Z,1010.92
2018-05-23T02:45:34.592Z,1010.88
2018-05-23T02:46:34.616Z,1010.93
2018-05-23T02:47:34.637Z,1010.90
2018-05-23T02:48:34.662Z,1010.92
2018-05-23T02:49:34.684Z,1010.96
2018-05-23T02:50:34.707Z,1010.91
2018-05-23T02:51:34.833Z,1010.89
2018-05-23T02:52:34.753Z,1010.89
2018-05-23T02:53:34.777Z,1010.92
2018-05-23T02:54:34.799Z,1010.92
2018-05-23T02:55:34.821Z,1010.89
2018-05-23T02:56:34.845Z,1010.89
2018-05-23T02:57:34.917Z,1010.89
2018-05-23T02:58:34.892Z,1010.91
2018-05-23T02:59:34.912Z,1010.93
2018-05-23T03:00:34.936Z,1010.91
2018-05-23T03:01:34.963Z,1010.91
2018-05-23T03:02:34.982Z,1010.89
2018-05-23T03:03:35.005Z,1010.92
2018-05-23T03:04:35.028Z,1010.90
2018-05-23T03:05:35.052Z,1010.92
2018-05-23T03:06:35.074Z,1010.96
2018-05-23T03:07:35.098Z,1010.95
2018-05-23T03:08:35.119Z,1010.97
2018-05-23T03:09:35.146Z,1010.97
2018-05-23T03:10:35.167Z,1011.01
2018-05-23T03:11:35.187Z,1011.01
2018-05-23T03:12:35.216Z,1011.03
2018-05-23T03:13:35.239Z,1011.03
2018-05-23T03:14:35.257Z,1011.00
2018-05-23T03:15:35.281Z,1011.05
2018-05-23T03:16:35.303Z,1011.07
2018-05-23T03:17:35.326Z,1011.03
2018-05-23T03:18:35.349Z,1011.04
2018-05-23T03:19:35.371Z,1011.02
2018-05-23T03:20:35.394Z,1011.04
2018-05-23T03:21:35.417Z,1011.07
2018-05-23T03:22:35.440Z,1011.07
2018-05-23T03:23:35.463Z,1011.15
2018-05-23T03:24:35.488Z,1011.17
2018-05-23T03:25:35.510Z,1011.17
2018-05-23T03:26:35.533Z,1011.18
2018-05-23T03:27:35.554Z,1011.17
2018-05-23T03:28:35.580Z,1011.19
2018-05-23T03:29:35.651Z,1011.23
2018-05-23T03:30:35.624Z,1011.23
2018-05-23T03:31:35.646Z,1011.21
2018-05-23T03:32:35.673Z,1011.22
2018-05-23T03:33:35.693Z,1011.25
2018-05-23T03:34:35.715Z,1011.27
2018-05-23T03:35:35.738Z,1011.27
2018-05-23T03:36:35.760Z,1011.27
2018-05-23T03:37:35.783Z,1011.28
2018-05-23T03:38:35.806Z,1011.30
2018-05-23T03:39:35.828Z,1011.28
2018-05-23T03:40:35.858Z,1011.32
2018-05-23T03:41:35.875Z,1011.35
2018-05-23T03:42:35.899Z,1011.37
2018-05-23T03:43:35.990Z,1011.36
2018-05-23T03:44:35.945Z,1011.38
2018-05-23T03:45:35.966Z,1011.35
2018-05-23T03:46:35.991Z,1011.39
2018-05-23T03:47:36.012Z,1011.36
2018-05-23T03:48:36.035Z,1011.36
2018-05-23T03:49:36.058Z,1011.35
2018-05-23T03:50:36.082Z,1011.30
2018-05-23T03:51:36.104Z,1011.30
2018-05-23T03:52:36.127Z,1011.33
2018-05-23T03:53:36.149Z,1011.33
2018-05-23T03:54:36.172Z,1011.34
2018-05-23T03:55:36.194Z,1011.35
2018-05-23T03:56:36.217Z,1011.34
2018-05-23T03:57:36.240Z,1011.37
2018-05-23T03:58:36.262Z,1011.38
2018-05-23T03:59:36.285Z,1011.41
2018-05-23T04:00:36.310Z,1011.40
2018-05-23T04:01:36.332Z,1011.38
2018-05-23T04:02:36.355Z,1011.46
2018-05-23T04:03:36.376Z,1011.46
2018-05-23T04:04:36.401Z,1011.45
2018-05-23T04:05:36.422Z,1011.45
2018-05-23T04:06:36.445Z,1011.48
2018-05-23T04:07:36.467Z,1011.46
2018-05-23T04:08:36.491Z,1011.49
2018-05-23T04:09:36.596Z,1011.53
2018-05-23T04:10:36.537Z,1011.54
2018-05-23T04:11:36.559Z,1011.58
2018-05-23T04:12:36.582Z,1011.60
2018-05-23T04:13:36.656Z,1011.60
2018-05-23T04:14:36.628Z,1011.60
2018-05-23T04:15:36.649Z,1011.61
2018-05-23T04:16:36.673Z,1011.61
2018-05-23T04:17:36.715Z,1011.64
2018-05-23T04:18:36.722Z,1011.61
2018-05-23T04:19:36.743Z,1011.65
2018-05-23T04:20:36.765Z,1011.66
2018-05-23T04:21:36.788Z,1011.65
2018-05-23T04:22:36.811Z,1011.65
2018-05-23T04:23:36.835Z,1011.64
2018-05-23T04:24:36.857Z,1011.64
2018-05-23T04:25:36.880Z,1011.61
2018-05-23T04:26:36.906Z,1011.65
2018-05-23T04:27:36.925Z,1011.62
2018-05-23T04:28:36.947Z,1011.66
2018-05-23T04:29:36.971Z,1011.66
2018-05-23T04:30:37.030Z,1011.67
2018-05-23T04:31:37.020Z,1011.65
2018-05-23T04:32:37.040Z,1011.69
2018-05-23T04:33:37.063Z,1011.68
2018-05-23T04:34:37.087Z,1011.71
2018-05-23T04:35:37.109Z,1011.74
2018-05-23T04:36:37.132Z,1011.69
2018-05-23T04:37:37.155Z,1011.74
2018-05-23T04:38:37.179Z,1011.72
2018-05-23T04:39:37.201Z,1011.74
2018-05-23T04:40:37.227Z,1011.73
2018-05-23T04:41:37.247Z,1011.74
2018-05-23T04:42:37.271Z,1011.75
2018-05-23T04:43:37.293Z,1011.76
2018-05-23T04:44:37.394Z,1011.77
2018-05-23T04:45:37.342Z,1011.79
2018-05-23T04:46:37.363Z,1011.80
2018-05-23T04:47:37.384Z,1011.82
2018-05-23T04:48:37.449Z,1011.81
2018-05-23T04:49:37.432Z,1011.81
2018-05-23T04:50:37.455Z,1011.88
2018-05-23T04:51:37.477Z,1011.90
2018-05-23T04:52:37.500Z,1011.87
2018-05-23T04:53:37.524Z,1011.90
2018-05-23T04:54:37.547Z,1011.89
2018-05-23T04:55:37.572Z,1011.89
2018-05-23T04:56:37.592Z,1011.88
2018-05-23T04:57:37.615Z,1011.87
2018-05-23T04:58:37.639Z,1011.92
2018-05-23T04:59:37.662Z,1011.92
2018-05-23T05:00:37.684Z,1011.94
2018-05-23T05:01:37.709Z,1012.02
2018-05-23T05:02:37.731Z,1012.01
2018-05-23T05:03:37.754Z,1012.02
2018-05-23T05:04:37.778Z,1012.03
2018-05-23T05:05:37.801Z,1012.03
2018-05-23T05:06:37.823Z,1012.04
2018-05-23T05:07:37.845Z,1012.04
2018-05-23T05:08:37.870Z,1012.09
2018-05-23T05:09:37.894Z,1012.03
2018-05-23T05:10:37.916Z,1012.11
2018-05-23T05:11:37.938Z,1012.09
2018-05-23T05:12:37.963Z,1012.09
2018-05-23T05:13:38.042Z,1012.09
2018-05-23T05:14:38.009Z,1012.14
2018-05-23T05:15:38.031Z,1012.19
2018-05-23T05:16:38.056Z,1012.18
2018-05-23T05:17:38.079Z,1012.18
2018-05-23T05:18:38.102Z,1012.21
2018-05-23T05:19:38.124Z,1012.22
2018-05-23T05:20:38.148Z,1012.23
2018-05-23T05:21:38.171Z,1012.27
2018-05-23T05:22:38.195Z,1012.21
2018-05-23T05:23:38.217Z,1012.27
2018-05-23T05:24:38.241Z,1012.24
2018-05-23T05:25:38.264Z,1012.30
2018-05-23T05:26:38.288Z,1012.28
2018-05-23T05:27:38.311Z,1012.30
2018-05-23T05:28:38.335Z,1012.31
2018-05-23T05:29:38.361Z,1012.38
2018-05-23T05:30:38.381Z,1012.34
2018-05-23T05:31:38.405Z,1012.36
2018-05-23T05:32:38.428Z,1012.34
2018-05-23T05:33:38.451Z,1012.33
2018-05-23T05:34:38.474Z,1012.28
2018-05-23T05:35:38.500Z,1012.38
2018-05-23T05:36:38.522Z,1012.36
2018-05-23T05:37:38.545Z,1012.37
2018-05-23T05:38:38.569Z,1012.41
2018-05-23T05:39:38.592Z,1012.40
2018-05-23T05:40:38.615Z,1012.38
2018-05-23T05:41:38.639Z,1012.40
2018-05-23T05:42:38.662Z,1012.43
2018-05-23T05:43:38.686Z,1012.43
2018-05-23T05:44:38.708Z,1012.47
2018-05-23T05:45:38.733Z,1012.44
2018-05-23T05:46:38.756Z,1012.51
2018-05-23T05:47:38.783Z,1012.53
2018-05-23T05:48:38.804Z,1012.50
2018-05-23T05:49:38.832Z,1012.57
2018-05-23T05:50:38.851Z,1012.61
2018-05-23T05:51:38.874Z,1012.60
2018-05-23T05:52:38.897Z,1012.59
2018-05-23T05:53:39.028Z,1012.66
2018-05-23T05:54:38.949Z,1012.63
2018-05-23T05:55:38.968Z,1012.65
2018-05-23T05:56:38.993Z,1012.68
2018-05-23T05:57:39.016Z,1012.69
2018-05-23T05:58:39.040Z,1012.75
2018-05-23T05:59:39.064Z,1012.78
2018-05-23T06:00:39.087Z,1012.80
2018-05-23T06:01:39.112Z,1012.80
2018-05-23T06:02:39.135Z,1012.81
2018-05-23T06:03:39.159Z,1012.84
2018-05-23T06:04:39.183Z,1012.89
2018-05-23T06:05:39.208Z,1012.85
2018-05-23T06:06:39.232Z,1012.89
2018-05-23T06:07:39.254Z,1012.90
2018-05-23T06:08:39.278Z,1012.94
2018-05-23T06:09:39.399Z,1012.94
2018-05-23T06:10:39.327Z,1012.91
2018-05-23T06:11:39.351Z,1012.95
2018-05-23T06:12:39.374Z,1012.98
2018-05-23T06:13:39.399Z,1012.97
2018-05-23T06:14:39.423Z,1012.97
2018-05-23T06:15:39.447Z,1012.99
2018-05-23T06:16:39.470Z,1013.00
2018-05-23T06:17:39.495Z,1013.02
2018-05-23T06:18:39.527Z,1013.06
2018-05-23T06:19:39.549Z,1013.05
2018-05-23T06:20:39.568Z,1013.06
2018-05-23T06:21:39.592Z,1013.06
2018-05-23T06:22:39.616Z,1013.09
2018-05-23T06:23:39.644Z,1013.08
2018-05-23T06:24:39.663Z,1013.09
2018-05-23T06:25:39.691Z,1013.09
2018-05-23T06:26:39.714Z,1013.10
2018-05-23T06:27:39.737Z,1013.09
2018-05-23T06:28:39.761Z,1013.12
2018-05-23T06:29:39.786Z,1013.19
2018-05-23T06:30:39.810Z,1013.18
2018-05-23T06:31:39.833Z,1013.14
2018-05-23T06:32:39.860Z,1013.15
2018-05-23T06:33:39.883Z,1013.18
2018-05-23T06:34:39.908Z,1013.18
2018-05-23T06:35:39.931Z,1013.16
2018-05-23T06:36:39.956Z,1013.17
2018-05-23T06:37:39.993Z,1013.14
2018-05-23T06:38:40.005Z,1013.19
2018-05-23T06:39:40.029Z,1013.21
2018-05-23T06:40:40.054Z,1013.23
2018-05-23T06:41:40.080Z,1013.24
2018-05-23T06:42:40.104Z,1013.26
2018-05-23T06:43:40.228Z,1013.24
2018-05-23T06:44:40.152Z,1013.24
2018-05-23T06:45:40.227Z,1013.26
2018-05-23T06:46:40.201Z,1013.30
2018-05-23T06:47:40.228Z,1013.29
2018-05-23T06:48:40.252Z,1013.34
2018-05-23T06:49:40.276Z,1013.32
2018-05-23T06:50:40.300Z,1013.36
2018-05-23T06:51:40.325Z,1013.34
2018-05-23T06:52:40.350Z,1013.37
2018-05-23T06:53:40.374Z,1013.38
2018-05-23T06:54:40.400Z,1013.35
2018-05-23T06:55:40.520Z,1013.35
2018-05-23T06:56:40.448Z,1013.39
2018-05-23T06:57:40.473Z,1013.41
2018-05-23T06:58:40.499Z,1013.43
2018-05-23T06:59:40.524Z,1013.43
2018-05-23T07:00:40.548Z,1013.43
2018-05-23T07:01:40.573Z,1013.45
2018-05-23T07:02:40.599Z,1013.44
2018-05-23T07:03:40.622Z,1013.44
2018-05-23T07:04:41.354Z,1013.44
2018-05-23T07:05:40.720Z,1013.52
2018-05-23T07:06:40.870Z,1013.50
2018-05-23T07:07:40.721Z,1013.51
2018-05-23T07:08:40.748Z,1013.60
2018-05-23T07:09:40.771Z,1013.57
2018-05-23T07:10:40.797Z,1013.58
2018-05-23T07:11:40.821Z,1013.59
2018-05-23T07:12:40.847Z,1013.60
2018-05-23T07:13:40.875Z,1013.66
2018-05-23T07:14:40.984Z,1013.61
2018-05-23T07:15:40.922Z,1013.60
2018-05-23T07:16:40.945Z,1013.67
2018-05-23T07:17:40.970Z,1013.69
2018-05-23T07:18:40.996Z,1013.69
2018-05-23T07:19:41.021Z,1013.68
2018-05-23T07:20:41.045Z,1013.68
2018-05-23T07:21:41.071Z,1013.69
2018-05-23T07:22:41.097Z,1013.70
2018-05-23T07:23:41.120Z,1013.71
2018-05-23T07:24:41.156Z,1013.71
2018-05-23T07:25:41.171Z,1013.72
2018-05-23T07:26:41.198Z,1013.72
2018-05-23T07:27:41.222Z,1013.69
2018-05-23T07:28:41.297Z,1013.68
2018-05-23T07:29:41.272Z,1013.71
2018-05-23T07:30:41.299Z,1013.73
2018-05-23T07:31:41.416Z,1013.73
2018-05-23T07:32:41.346Z,1013.75
2018-05-23T07:33:41.373Z,1013.76
2018-05-23T07:34:41.397Z,1013.79
2018-05-23T07:35:41.422Z,1013.80
2018-05-23T07:36:41.448Z,1013.80
2018-05-23T07:37:41.483Z,1013.84
2018-05-23T07:38:41.499Z,1013.85
2018-05-23T07:39:41.523Z,1013.86
2018-05-23T07:40:41.549Z,1013.86
2018-05-23T07:41:41.574Z,1013.90
2018-05-23T07:42:41.600Z,1013.85
2018-05-23T07:43:41.624Z,1013.82
2018-05-23T07:44:41.651Z,1013.81
2018-05-23T07:45:41.675Z,1013.83
2018-05-23T07:46:41.702Z,1013.87
2018-05-23T07:47:41.727Z,1013.84
2018-05-23T07:48:41.754Z,1013.89
2018-05-23T07:49:41.777Z,1013.91
2018-05-23T07:50:41.804Z,1013.93
2018-05-23T07:51:41.831Z,1013.93
2018-05-23T07:52:41.855Z,1013.93
2018-05-23T07:53:41.881Z,1013.94
2018-05-23T07:54:41.907Z,1013.94
2018-05-23T07:55:41.932Z,1013.93
2018-05-23T07:56:41.969Z,1013.98
2018-05-23T07:57:41.983Z,1013.95
2018-05-23T07:58:42.009Z,1013.94
2018-05-23T07:59:42.038Z,1013.96
2018-05-23T08:00:42.060Z,1013.97
2018-05-23T08:01:42.088Z,1013.99
2018-05-23T08:02:42.113Z,1013.95
2018-05-23T08:03:42.139Z,1013.95
2018-05-23T08:04:42.169Z,1013.95
2018-05-23T08:05:42.190Z,1013.97
2018-05-23T08:06:42.217Z,1013.94
2018-05-23T08:07:42.242Z,1013.97
2018-05-23T08:08:42.268Z,1013.96
2018-05-23T08:09:42.296Z,1013.98
2018-05-23T08:10:42.326Z,1013.98
2018-05-23T08:11:42.347Z,1013.96
2018-05-23T08:12:42.373Z,1014.00
2018-05-23T08:13:42.400Z,1013.96
2018-05-23T08:14:42.427Z,1013.98
2018-05-23T08:15:42.451Z,1013.99
2018-05-23T08:16:42.477Z,1013.98
2018-05-23T08:17:42.504Z,1014.02
2018-05-23T08:18:42.681Z,1014.01
2018-05-23T08:19:42.564Z,1014.03
2018-05-23T08:20:42.583Z,1014.01
2018-05-23T08:21:42.609Z,1014.01
2018-05-23T08:22:42.636Z,1014.03
2018-05-23T08:23:42.661Z,1014.00
2018-05-23T08:24:42.690Z,1014.05
2018-05-23T08:25:42.714Z,1014.01
2018-05-23T08:26:42.741Z,1014.07
2018-05-23T08:27:42.766Z,1014.01
2018-05-23T08:28:42.797Z,1014.07
2018-05-23T08:29:42.883Z,1014.07
2018-05-23T08:30:42.851Z,1014.00
2018-05-23T08:31:42.872Z,1014.04
2018-05-23T08:32:42.898Z,1014.06
2018-05-23T08:33:42.926Z,1014.04
2018-05-23T08:34:42.953Z,1014.05
2018-05-23T08:35:42.978Z,1014.05
2018-05-23T08:36:43.004Z,1014.04
2018-05-23T08:37:43.031Z,1014.03
2018-05-23T08:38:43.059Z,1014.08
2018-05-23T08:39:43.085Z,1014.06
2018-05-23T08:40:43.110Z,1014.03
2018-05-23T08:41:43.137Z,1014.03
2018-05-23T08:42:43.164Z,1014.03
2018-05-23T08:43:43.190Z,1014.04
2018-05-23T08:44:43.218Z,1014.06
2018-05-23T08:45:43.243Z,1014.12
2018-05-23T08:46:43.271Z,1014.12
2018-05-23T08:47:43.298Z,1014.12
2018-05-23T08:48:43.326Z,1014.14
2018-05-23T08:49:43.350Z,1014.12
2018-05-23T08:50:43.378Z,1014.14
2018-05-23T08:51:43.403Z,1014.13
2018-05-23T08:52:43.430Z,1014.17
2018-05-23T08:53:43.457Z,1014.18
2018-05-23T08:54:43.484Z,1014.18
2018-05-23T08:55:43.510Z,1014.19
2018-05-23T08:56:43.537Z,1014.20
2018-05-23T08:57:43.565Z,1014.21
2018-05-23T08:58:43.594Z,1014.24
2018-05-23T08:59:43.618Z,1014.22
2018-05-23T09:00:43.845Z,1014.24
2018-05-23T09:01:43.676Z,1014.25
2018-05-23T09:02:43.701Z,1014.26
2018-05-23T09:03:43.727Z,1014.27
2018-05-23T09:04:43.798Z,1014.25
2018-05-23T09:05:43.781Z,1014.25
2018-05-23T09:06:43.808Z,1014.29
2018-05-23T09:07:43.934Z,1014.31
2018-05-23T09:08:43.861Z,1014.31
2018-05-23T09:09:43.888Z,1014.27
2018-05-23T09:10:43.915Z,1014.32
2018-05-23T09:11:43.941Z,1014.29
2018-05-23T09:12:43.969Z,1014.37
2018-05-23T09:13:43.995Z,1014.30
2018-05-23T09:14:44.027Z,1014.36
2018-05-23T09:15:44.049Z,1014.38
2018-05-23T09:16:44.076Z,1014.39
2018-05-23T09:17:44.103Z,1014.41
2018-05-23T09:18:44.136Z,1014.44
2018-05-23T09:19:44.157Z,1014.44
2018-05-23T09:20:44.183Z,1014.44
2018-05-23T09:21:44.210Z,1014.45
2018-05-23T09:22:44.238Z,1014.45
2018-05-23T09:23:44.264Z,1014.48
2018-05-23T09:24:44.291Z,1014.44
2018-05-23T09:25:44.319Z,1014.48
2018-05-23T09:26:44.347Z,1014.46
2018-05-23T09:27:44.372Z,1014.50
2018-05-23T09:28:44.406Z,1014.54
2018-05-23T09:29:44.426Z,1014.50
2018-05-23T09:30:44.654Z,1014.52
2018-05-23T09:31:44.481Z,1014.53
2018-05-23T09:32:44.509Z,1014.54
2018-05-23T09:33:44.539Z,1014.57
2018-05-23T09:34:44.563Z,1014.58
2018-05-23T09:35:44.594Z,1014.58
2018-05-23T09:36:44.616Z,1014.58
2018-05-23T09:37:44.644Z,1014.60
2018-05-23T09:38:44.672Z,1014.61
2018-05-23T09:39:44.697Z,1014.64
2018-05-23T09:40:44.726Z,1014.61
2018-05-23T09:41:44.753Z,1014.63
2018-05-23T09:42:44.780Z,1014.64
2018-05-23T09:43:44.808Z,1014.69
2018-05-23T09:44:44.839Z,1014.68
2018-05-23T09:45:44.864Z,1014.66
2018-05-23T09:46:44.891Z,1014.64
2018-05-23T09:47:44.919Z,1014.62
2018-05-23T09:48:44.947Z,1014.60
2018-05-23T09:49:44.975Z,1014.68
2018-05-23T09:50:45.053Z,1014.72
2018-05-23T09:51:45.030Z,1014.69
2018-05-23T09:52:45.058Z,1014.74
2018-05-23T09:53:45.086Z,1014.73
2018-05-23T09:54:45.113Z,1014.72
2018-05-23T09:55:45.139Z,1014.76
2018-05-23T09:56:45.169Z,1014.76
2018-05-23T09:57:45.196Z,1014.72
2018-05-23T09:58:45.224Z,1014.75
2018-05-23T09:59:45.251Z,1014.76
2018-05-23T10:00:45.279Z,1014.73
2018-05-23T10:01:45.306Z,1014.78
2018-05-23T10:02:45.333Z,1014.77
2018-05-23T10:03:45.361Z,1014.77
2018-05-23T10:04:45.389Z,1014.80
2018-05-23T10:05:45.417Z,1014.79
2018-05-23T10:06:45.445Z,1014.81
2018-05-23T10:07:45.472Z,1014.86
2018-05-23T10:08:45.503Z,1014.84
2018-05-23T10:09:45.529Z,1014.83
2018-05-23T10:10:45.556Z,1014.86
2018-05-23T10:11:45.582Z,1014.87
2018-05-23T10:12:45.611Z,1014.85
2018-05-23T10:13:45.639Z,1014.86
2018-05-23T10:14:45.667Z,1014.87
2018-05-23T10:15:45.694Z,1014.90
2018-05-23T10:16:45.721Z,1014.91
2018-05-23T10:17:45.750Z,1014.92
2018-05-23T10:18:45.781Z,1014.94
2018-05-23T10:19:45.806Z,1014.93
2018-05-23T10:20:45.839Z,1014.92
2018-05-23T10:21:45.862Z,1014.91
2018-05-23T10:22:46.015Z,1014.94
2018-05-23T10:23:45.920Z,1015.01
2018-05-23T10:24:45.948Z,1015.02
2018-05-23T10:25:45.973Z,1015.04
2018-05-23T10:26:46.001Z,1015.04
2018-05-23T10:27:46.028Z,1015.00
2018-05-23T10:28:46.059Z,1015.01
2018-05-23T10:29:46.090Z,1015.04
2018-05-23T10:30:46.113Z,1015.05
2018-05-23T10:31:46.140Z,1015.08
2018-05-23T10:32:46.169Z,1015.05
2018-05-23T10:33:46.196Z,1015.03
2018-05-23T10:34:46.225Z,1015.06
2018-05-23T10:35:46.254Z,1015.06
2018-05-23T10:36:46.281Z,1015.04
2018-05-23T10:37:46.359Z,1015.05
2018-05-23T10:38:46.341Z,1015.07
2018-05-23T10:39:46.619Z,1015.07
2018-05-23T10:40:46.393Z,1015.09
2018-05-23T10:41:46.421Z,1015.10
2018-05-23T10:42:46.452Z,1015.02
2018-05-23T10:43:46.477Z,1015.11
2018-05-23T10:44:46.505Z,1015.09
2018-05-23T10:45:46.534Z,1015.09
2018-05-23T10:46:46.562Z,1015.12
2018-05-23T10:47:46.590Z,1015.15
2018-05-23T10:48:46.622Z,1015.23
2018-05-23T10:49:46.650Z,1015.23
2018-05-23T10:50:46.674Z,1015.25
2018-05-23T10:51:46.709Z,1015.19
2018-05-23T10:52:46.730Z,1015.18
2018-05-23T10:53:46.758Z,1015.25
2018-05-23T10:54:46.787Z,1015.24
2018-05-23T10:55:46.813Z,1015.28
2018-05-23T10:56:46.842Z,1015.28
2018-05-23T10:57:46.870Z,1015.29
2018-05-23T10:58:46.898Z,1015.26
2018-05-23T10:59:46.926Z,1015.27
2018-05-23T11:00:46.955Z,1015.24
2018-05-23T11:01:46.983Z,1015.24
2018-05-23T11:02:47.096Z,1015.29
2018-05-23T11:03:47.038Z,1015.36
2018-05-23T11:04:47.067Z,1015.27
2018-05-23T11:05:47.103Z,1015.29
2018-05-23T11:06:47.123Z,1015.29
2018-05-23T11:07:47.150Z,1015.35
2018-05-23T11:08:47.179Z,1015.28
2018-05-23T11:09:47.206Z,1015.32
2018-05-23T11:10:47.234Z,1015.36
2018-05-23T11:11:47.260Z,1015.30
2018-05-23T11:12:47.289Z,1015.35
2018-05-23T11:13:47.318Z,1015.34
2018-05-23T11:14:47.407Z,1015.36
2018-05-23T11:15:47.372Z,1015.33
2018-05-23T11:16:47.400Z,1015.36
2018-05-23T11:17:47.428Z,1015.33
2018-05-23T11:18:47.457Z,1015.38
2018-05-23T11:19:47.483Z,1015.40
2018-05-23T11:20:47.563Z,1015.43
2018-05-23T11:21:47.540Z,1015.42
2018-05-23T11:22:47.568Z,1015.42
2018-05-23T11:23:47.595Z,1015.48
2018-05-23T11:24:47.622Z,1015.42
2018-05-23T11:25:47.650Z,1015.45
2018-05-23T11:26:47.886Z,1015.45
2018-05-23T11:27:47.705Z,1015.50
2018-05-23T11:28:47.735Z,1015.45
2018-05-23T11:29:47.878Z,1015.52
2018-05-23T11:30:47.795Z,1015.52
2018-05-23T11:31:47.817Z,1015.46
2018-05-23T11:32:47.895Z,1015.48
2018-05-23T11:33:47.880Z,1015.43
2018-05-23T11:34:47.902Z,1015.47
2018-05-23T11:35:47.928Z,1015.44
2018-05-23T11:36:47.957Z,1015.47
2018-05-23T11:37:47.984Z,1015.46
2018-05-23T11:38:48.014Z,1015.47
2018-05-23T11:39:48.040Z,1015.48
2018-05-23T11:40:48.067Z,1015.45
2018-05-23T11:41:48.097Z,1015.48
2018-05-23T11:42:48.124Z,1015.54
2018-05-23T11:43:48.151Z,1015.47
2018-05-23T11:44:48.179Z,1015.55
2018-05-23T11:45:48.209Z,1015.47
2018-05-23T11:46:48.235Z,1015.50
2018-05-23T11:47:48.263Z,1015.47
2018-05-23T11:48:48.291Z,1015.50
2018-05-23T11:49:48.323Z,1015.46
2018-05-23T11:50:48.347Z,1015.54
2018-05-23T11:51:48.374Z,1015.51
2018-05-23T11:52:48.402Z,1015.50
2018-05-23T11:53:48.431Z,1015.51
2018-05-23T11:54:48.461Z,1015.46
2018-05-23T11:55:48.486Z,1015.47
2018-05-23T11:56:48.564Z,1015.47
2018-05-23T11:57:48.547Z,1015.46
2018-05-23T11:58:48.570Z,1015.49
2018-05-23T11:59:48.601Z,1015.51
2018-05-23T12:00:48.631Z,1015.47
2018-05-23T12:01:48.786Z,1015.46
2018-05-23T12:02:48.681Z,1015.44
2018-05-23T12:03:48.707Z,1015.46
2018-05-23T12:04:48.738Z,1015.44
2018-05-23T12:05:48.763Z,1015.48